sensor_id;sensor_type;location;lat;lon;timestamp;P1;durP1;ratioP1;P2;durP2;ratioP2
11171;SDS011;5642;50.830;12.082;2024-01-06T00:02:34;3.03;;;2.50;;
11171;SDS011;5642;50.830;12.082;2024-01-06T00:05:22;2.65;;;2.00;;
11171;SDS011;5642;50.830;12.082;2024-01-06T00:07:48;2.85;;;2.38;;
11171;SDS011;5642;50.830;12.082;2024-01-06T00:10:34;2.28;;;2.05;;
11171;SDS011;5642;50.830;12.082;2024-01-06T00:13:19;2.75;;;2.13;;
11171;SDS011;5642;50.830;12.082;2024-01-06T00:16:04;2.40;;;2.10;;
11171;SDS011;5642;50.830;12.082;2024-01-06T00:18:46;2.33;;;2.13;;
11171;SDS011;5642;50.830;12.082;2024-01-06T00:21:30;2.20;;;2.00;;
11171;SDS011;5642;50.830;12.082;2024-01-06T00:24:18;2.28;;;2.00;;
11171;SDS011;5642;50.830;12.082;2024-01-06T00:26:45;2.38;;;2.10;;
11171;SDS011;5642;50.830;12.082;2024-01-06T00:29:25;2.55;;;2.20;;
11171;SDS011;5642;50.830;12.082;2024-01-06T00:32:20;3.38;;;2.30;;
11171;SDS011;5642;50.830;12.082;2024-01-06T00:35:10;2.40;;;2.10;;
11171;SDS011;5642;50.830;12.082;2024-01-06T00:37:54;2.30;;;2.10;;
11171;SDS011;5642;50.830;12.082;2024-01-06T00:40:22;2.35;;;2.15;;
11171;SDS011;5642;50.830;12.082;2024-01-06T00:43:03;3.53;;;2.10;;
11171;SDS011;5642;50.830;12.082;2024-01-06T00:45:46;3.33;;;2.15;;
11171;SDS011;5642;50.830;12.082;2024-01-06T00:48:32;2.50;;;2.30;;
11171;SDS011;5642;50.830;12.082;2024-01-06T00:51:13;3.53;;;2.75;;
11171;SDS011;5642;50.830;12.082;2024-01-06T00:54:12;2.97;;;2.50;;
11171;SDS011;5642;50.830;12.082;2024-01-06T00:56:54;2.50;;;2.20;;
11171;SDS011;5642;50.830;12.082;2024-01-06T01:10:49;1.90;;;1.80;;
11171;SDS011;5642;50.830;12.082;2024-01-06T01:13:40;2.20;;;2.00;;
11171;SDS011;5642;50.830;12.082;2024-01-06T01:16:07;2.20;;;1.90;;
11171;SDS011;5642;50.830;12.082;2024-01-06T01:18:48;1.80;;;1.70;;
11171;SDS011;5642;50.830;12.082;2024-01-06T01:21:37;1.90;;;1.50;;
11171;SDS011;5642;50.830;12.082;2024-01-06T01:24:20;1.90;;;1.50;;
11171;SDS011;5642;50.830;12.082;2024-01-06T01:27:02;1.65;;;1.40;;
11171;SDS011;5642;50.830;12.082;2024-01-06T01:29:31;1.50;;;1.40;;
11171;SDS011;5642;50.830;12.082;2024-01-06T01:32:04;1.60;;;1.50;;
11171;SDS011;5642;50.830;12.082;2024-01-06T01:34:38;1.42;;;1.33;;
11171;SDS011;5642;50.830;12.082;2024-01-06T01:37:04;1.60;;;1.50;;
11171;SDS011;5642;50.830;12.082;2024-01-06T01:39:31;1.60;;;1.50;;
11171;SDS011;5642;50.830;12.082;2024-01-06T01:42:21;1.65;;;1.50;;
11171;SDS011;5642;50.830;12.082;2024-01-06T01:44:56;1.67;;;1.40;;
11171;SDS011;5642;50.830;12.082;2024-01-06T01:47:23;1.70;;;1.60;;
11171;SDS011;5642;50.830;12.082;2024-01-06T01:50:05;1.67;;;1.45;;
11171;SDS011;5642;50.830;12.082;2024-01-06T01:52:51;1.95;;;1.38;;
11171;SDS011;5642;50.830;12.082;2024-01-06T01:55:18;1.50;;;1.40;;
11171;SDS011;5642;50.830;12.082;2024-01-06T01:58:02;1.48;;;1.38;;
11171;SDS011;5642;50.830;12.082;2024-01-06T02:00:49;1.63;;;1.50;;
11171;SDS011;5642;50.830;12.082;2024-01-06T02:03:45;1.50;;;1.40;;
11171;SDS011;5642;50.830;12.082;2024-01-06T02:06:29;1.58;;;1.48;;
11171;SDS011;5642;50.830;12.082;2024-01-06T02:09:13;1.75;;;1.65;;
11171;SDS011;5642;50.830;12.082;2024-01-06T02:11:58;1.60;;;1.50;;
11171;SDS011;5642;50.830;12.082;2024-01-06T02:14:26;1.77;;;1.67;;
11171;SDS011;5642;50.830;12.082;2024-01-06T02:16:52;1.63;;;1.50;;
11171;SDS011;5642;50.830;12.082;2024-01-06T02:19:38;2.30;;;1.60;;
11171;SDS011;5642;50.830;12.082;2024-01-06T02:22:21;1.70;;;1.55;;
11171;SDS011;5642;50.830;12.082;2024-01-06T02:24:58;1.63;;;1.52;;
11171;SDS011;5642;50.830;12.082;2024-01-06T02:27:38;1.52;;;1.42;;
11171;SDS011;5642;50.830;12.082;2024-01-06T02:30:20;1.85;;;1.58;;
11171;SDS011;5642;50.830;12.082;2024-01-06T02:33:07;1.55;;;1.40;;
11171;SDS011;5642;50.830;12.082;2024-01-06T02:35:47;2.55;;;1.60;;
11171;SDS011;5642;50.830;12.082;2024-01-06T02:38:13;1.77;;;1.67;;
11171;SDS011;5642;50.830;12.082;2024-01-06T02:40:41;1.83;;;1.70;;
11171;SDS011;5642;50.830;12.082;2024-01-06T02:43:09;1.60;;;1.50;;
11171;SDS011;5642;50.830;12.082;2024-01-06T02:45:54;1.40;;;1.30;;
11171;SDS011;5642;50.830;12.082;2024-01-06T02:48:39;1.92;;;1.38;;
11171;SDS011;5642;50.830;12.082;2024-01-06T02:51:23;2.03;;;1.60;;
11171;SDS011;5642;50.830;12.082;2024-01-06T02:54:06;1.60;;;1.50;;
11171;SDS011;5642;50.830;12.082;2024-01-06T02:56:37;2.03;;;1.60;;
11171;SDS011;5642;50.830;12.082;2024-01-06T02:59:23;1.63;;;1.50;;
11171;SDS011;5642;50.830;12.082;2024-01-06T03:02:07;1.58;;;1.48;;
11171;SDS011;5642;50.830;12.082;2024-01-06T03:04:51;1.55;;;1.45;;
11171;SDS011;5642;50.830;12.082;2024-01-06T03:07:18;1.20;;;1.10;;
11171;SDS011;5642;50.830;12.082;2024-01-06T03:09:56;1.55;;;1.45;;
11171;SDS011;5642;50.830;12.082;2024-01-06T03:12:48;1.63;;;1.50;;
11171;SDS011;5642;50.830;12.082;2024-01-06T03:15:33;1.60;;;1.50;;
11171;SDS011;5642;50.830;12.082;2024-01-06T03:18:17;1.55;;;1.45;;
11171;SDS011;5642;50.830;12.082;2024-01-06T03:21:02;1.55;;;1.45;;
11171;SDS011;5642;50.830;12.082;2024-01-06T03:23:31;1.48;;;1.38;;
11171;SDS011;5642;50.830;12.082;2024-01-06T03:26:13;1.67;;;1.58;;
11171;SDS011;5642;50.830;12.082;2024-01-06T03:28:42;4.00;;;1.77;;
11171;SDS011;5642;50.830;12.082;2024-01-06T03:31:13;1.70;;;1.60;;
11171;SDS011;5642;50.830;12.082;2024-01-06T03:33:39;1.63;;;1.50;;
11171;SDS011;5642;50.830;12.082;2024-01-06T03:36:09;2.50;;;1.73;;
11171;SDS011;5642;50.830;12.082;2024-01-06T03:38:50;1.50;;;1.40;;
11171;SDS011;5642;50.830;12.082;2024-01-06T03:41:34;1.95;;;1.63;;
11171;SDS011;5642;50.830;12.082;2024-01-06T03:44:01;1.52;;;1.40;;
11171;SDS011;5642;50.830;12.082;2024-01-06T03:46:28;1.50;;;1.40;;
11171;SDS011;5642;50.830;12.082;2024-01-06T03:48:54;1.42;;;1.33;;
11171;SDS011;5642;50.830;12.082;2024-01-06T03:51:22;1.60;;;1.50;;
11171;SDS011;5642;50.830;12.082;2024-01-06T03:54:01;1.10;;;1.10;;
11171;SDS011;5642;50.830;12.082;2024-01-06T03:56:28;1.42;;;1.30;;
11171;SDS011;5642;50.830;12.082;2024-01-06T03:59:03;1.48;;;1.38;;
11171;SDS011;5642;50.830;12.082;2024-01-06T04:01:49;1.40;;;1.30;;
11171;SDS011;5642;50.830;12.082;2024-01-06T04:04:18;1.50;;;1.40;;
11171;SDS011;5642;50.830;12.082;2024-01-06T04:06:58;1.45;;;1.35;;
11171;SDS011;5642;50.830;12.082;2024-01-06T04:09:25;1.40;;;1.30;;
11171;SDS011;5642;50.830;12.082;2024-01-06T04:11:52;1.20;;;1.10;;
11171;SDS011;5642;50.830;12.082;2024-01-06T04:14:19;1.60;;;1.48;;
11171;SDS011;5642;50.830;12.082;2024-01-06T04:17:02;2.53;;;1.42;;
11171;SDS011;5642;50.830;12.082;2024-01-06T04:19:55;1.50;;;1.40;;
11171;SDS011;5642;50.830;12.082;2024-01-06T04:22:23;1.60;;;1.50;;
11171;SDS011;5642;50.830;12.082;2024-01-06T04:24:50;1.30;;;1.20;;
11171;SDS011;5642;50.830;12.082;2024-01-06T04:27:46;1.60;;;1.50;;
11171;SDS011;5642;50.830;12.082;2024-01-06T04:30:33;1.50;;;1.40;;
11171;SDS011;5642;50.830;12.082;2024-01-06T04:33:13;1.50;;;1.40;;
11171;SDS011;5642;50.830;12.082;2024-01-06T04:36:10;1.67;;;1.58;;
11171;SDS011;5642;50.830;12.082;2024-01-06T04:38:51;2.30;;;1.40;;
11171;SDS011;5642;50.830;12.082;2024-01-06T04:41:32;1.50;;;1.40;;
11171;SDS011;5642;50.830;12.082;2024-01-06T04:44:11;2.45;;;1.35;;
11171;SDS011;5642;50.830;12.082;2024-01-06T04:46:39;2.63;;;1.40;;
11171;SDS011;5642;50.830;12.082;2024-01-06T04:49:05;2.08;;;1.35;;
11171;SDS011;5642;50.830;12.082;2024-01-06T04:51:46;1.63;;;1.52;;
11171;SDS011;5642;50.830;12.082;2024-01-06T04:54:15;1.55;;;1.45;;
11171;SDS011;5642;50.830;12.082;2024-01-06T04:56:43;1.45;;;1.33;;
11171;SDS011;5642;50.830;12.082;2024-01-06T04:59:09;1.65;;;1.40;;
11171;SDS011;5642;50.830;12.082;2024-01-06T05:01:53;1.45;;;1.35;;
11171;SDS011;5642;50.830;12.082;2024-01-06T05:04:41;1.50;;;1.40;;
11171;SDS011;5642;50.830;12.082;2024-01-06T05:07:33;1.38;;;1.27;;
11171;SDS011;5642;50.830;12.082;2024-01-06T05:10:02;1.40;;;1.30;;
11171;SDS011;5642;50.830;12.082;2024-01-06T05:12:29;1.60;;;1.50;;
11171;SDS011;5642;50.830;12.082;2024-01-06T05:14:59;5.32;;;1.85;;
11171;SDS011;5642;50.830;12.082;2024-01-06T05:17:26;1.90;;;1.80;;
11171;SDS011;5642;50.830;12.082;2024-01-06T05:20:18;1.52;;;1.40;;
11171;SDS011;5642;50.830;12.082;2024-01-06T05:23:06;1.83;;;1.65;;
11171;SDS011;5642;50.830;12.082;2024-01-06T05:25:37;1.70;;;1.60;;
11171;SDS011;5642;50.830;12.082;2024-01-06T05:28:06;1.50;;;1.30;;
11171;SDS011;5642;50.830;12.082;2024-01-06T05:30:34;1.67;;;1.58;;
11171;SDS011;5642;50.830;12.082;2024-01-06T05:33:27;1.73;;;1.60;;
11171;SDS011;5642;50.830;12.082;2024-01-06T05:35:54;2.05;;;1.80;;
11171;SDS011;5642;50.830;12.082;2024-01-06T05:38:29;1.58;;;1.48;;
11171;SDS011;5642;50.830;12.082;2024-01-06T05:41:19;2.28;;;1.80;;
11171;SDS011;5642;50.830;12.082;2024-01-06T05:43:48;1.88;;;1.75;;
11171;SDS011;5642;50.830;12.082;2024-01-06T05:46:23;1.55;;;1.45;;
11171;SDS011;5642;50.830;12.082;2024-01-06T05:48:52;1.52;;;1.42;;
11171;SDS011;5642;50.830;12.082;2024-01-06T05:51:30;1.60;;;1.50;;
11171;SDS011;5642;50.830;12.082;2024-01-06T05:54:09;1.67;;;1.58;;
11171;SDS011;5642;50.830;12.082;2024-01-06T05:56:57;1.85;;;1.60;;
11171;SDS011;5642;50.830;12.082;2024-01-06T05:59:25;1.67;;;1.58;;
11171;SDS011;5642;50.830;12.082;2024-01-06T06:02:07;1.60;;;1.50;;
11171;SDS011;5642;50.830;12.082;2024-01-06T06:04:38;1.77;;;1.67;;
11171;SDS011;5642;50.830;12.082;2024-01-06T06:07:27;2.30;;;1.80;;
11171;SDS011;5642;50.830;12.082;2024-01-06T06:09:56;2.22;;;2.00;;
11171;SDS011;5642;50.830;12.082;2024-01-06T06:12:40;2.20;;;1.95;;
11171;SDS011;5642;50.830;12.082;2024-01-06T06:15:25;2.40;;;2.20;;
11171;SDS011;5642;50.830;12.082;2024-01-06T06:17:51;2.75;;;2.50;;
11171;SDS011;5642;50.830;12.082;2024-01-06T06:20:37;2.70;;;2.50;;
11171;SDS011;5642;50.830;12.082;2024-01-06T06:34:40;2.28;;;2.08;;
11171;SDS011;5642;50.830;12.082;2024-01-06T06:37:16;2.10;;;1.90;;
11171;SDS011;5642;50.830;12.082;2024-01-06T06:39:44;1.92;;;1.83;;
11171;SDS011;5642;50.830;12.082;2024-01-06T06:42:12;2.10;;;1.90;;
11171;SDS011;5642;50.830;12.082;2024-01-06T06:44:38;1.98;;;1.88;;
11171;SDS011;5642;50.830;12.082;2024-01-06T06:47:08;2.00;;;1.90;;
11171;SDS011;5642;50.830;12.082;2024-01-06T06:49:35;2.25;;;2.10;;
11171;SDS011;5642;50.830;12.082;2024-01-06T06:52:21;1.80;;;1.70;;
11171;SDS011;5642;50.830;12.082;2024-01-06T06:55:06;1.75;;;1.65;;
11171;SDS011;5642;50.830;12.082;2024-01-06T06:57:56;1.88;;;1.70;;
11171;SDS011;5642;50.830;12.082;2024-01-06T07:00:38;2.05;;;1.85;;
11171;SDS011;5642;50.830;12.082;2024-01-06T07:03:15;1.73;;;1.63;;
11171;SDS011;5642;50.830;12.082;2024-01-06T07:05:58;1.83;;;1.73;;
11171;SDS011;5642;50.830;12.082;2024-01-06T07:08:24;1.90;;;1.80;;
11171;SDS011;5642;50.830;12.082;2024-01-06T07:11:05;1.83;;;1.73;;
11171;SDS011;5642;50.830;12.082;2024-01-06T07:13:34;1.80;;;1.70;;
11171;SDS011;5642;50.830;12.082;2024-01-06T07:16:12;2.65;;;2.17;;
11171;SDS011;5642;50.830;12.082;2024-01-06T07:18:54;4.78;;;3.45;;
11171;SDS011;5642;50.830;12.082;2024-01-06T07:21:37;3.83;;;2.65;;
11171;SDS011;5642;50.830;12.082;2024-01-06T07:24:15;2.53;;;2.30;;
11171;SDS011;5642;50.830;12.082;2024-01-06T07:27:03;3.97;;;2.70;;
11171;SDS011;5642;50.830;12.082;2024-01-06T07:29:40;2.60;;;2.40;;
11171;SDS011;5642;50.830;12.082;2024-01-06T07:32:27;2.47;;;2.28;;
11171;SDS011;5642;50.830;12.082;2024-01-06T07:34:57;2.80;;;2.58;;
11171;SDS011;5642;50.830;12.082;2024-01-06T07:37:56;3.42;;;2.20;;
11171;SDS011;5642;50.830;12.082;2024-01-06T07:40:22;2.08;;;1.90;;
11171;SDS011;5642;50.830;12.082;2024-01-06T07:43:02;2.17;;;1.98;;
11171;SDS011;5642;50.830;12.082;2024-01-06T07:45:33;2.60;;;2.20;;
11171;SDS011;5642;50.830;12.082;2024-01-06T07:48:17;2.63;;;2.22;;
11171;SDS011;5642;50.830;12.082;2024-01-06T07:50:56;2.75;;;2.20;;
11171;SDS011;5642;50.830;12.082;2024-01-06T07:53:24;3.17;;;1.98;;
11171;SDS011;5642;50.830;12.082;2024-01-06T07:55:50;2.55;;;2.20;;
11171;SDS011;5642;50.830;12.082;2024-01-06T07:58:19;2.00;;;1.88;;
11171;SDS011;5642;50.830;12.082;2024-01-06T08:00:45;2.42;;;2.20;;
11171;SDS011;5642;50.830;12.082;2024-01-06T08:03:30;2.03;;;1.92;;
11171;SDS011;5642;50.830;12.082;2024-01-06T08:06:15;2.78;;;2.17;;
11171;SDS011;5642;50.830;12.082;2024-01-06T08:08:45;2.53;;;2.20;;
11171;SDS011;5642;50.830;12.082;2024-01-06T08:11:33;2.03;;;1.83;;
11171;SDS011;5642;50.830;12.082;2024-01-06T08:14:22;2.20;;;2.00;;
11171;SDS011;5642;50.830;12.082;2024-01-06T08:17:12;2.20;;;2.00;;
11171;SDS011;5642;50.830;12.082;2024-01-06T08:19:38;2.28;;;2.08;;
11171;SDS011;5642;50.830;12.082;2024-01-06T08:22:12;2.10;;;1.95;;
11171;SDS011;5642;50.830;12.082;2024-01-06T08:24:56;1.70;;;1.60;;
11171;SDS011;5642;50.830;12.082;2024-01-06T08:27:33;2.42;;;2.15;;
11171;SDS011;5642;50.830;12.082;2024-01-06T08:30:26;2.97;;;2.40;;
11171;SDS011;5642;50.830;12.082;2024-01-06T08:33:12;2.55;;;2.35;;
11171;SDS011;5642;50.830;12.082;2024-01-06T08:35:46;3.42;;;2.17;;
11171;SDS011;5642;50.830;12.082;2024-01-06T08:38:14;2.97;;;2.60;;
11171;SDS011;5642;50.830;12.082;2024-01-06T08:40:44;3.25;;;2.95;;
11171;SDS011;5642;50.830;12.082;2024-01-06T08:43:28;2.90;;;2.70;;
11171;SDS011;5642;50.830;12.082;2024-01-06T08:46:09;3.60;;;2.83;;
11171;SDS011;5642;50.830;12.082;2024-01-06T08:49:06;3.60;;;2.70;;
11171;SDS011;5642;50.830;12.082;2024-01-06T08:51:46;3.10;;;2.80;;
11171;SDS011;5642;50.830;12.082;2024-01-06T08:54:34;2.80;;;2.60;;
11171;SDS011;5642;50.830;12.082;2024-01-06T08:57:01;3.95;;;3.08;;
11171;SDS011;5642;50.830;12.082;2024-01-06T08:59:43;3.92;;;3.00;;
11171;SDS011;5642;50.830;12.082;2024-01-06T09:02:33;2.65;;;2.42;;
11171;SDS011;5642;50.830;12.082;2024-01-06T09:05:16;2.92;;;2.63;;
11171;SDS011;5642;50.830;12.082;2024-01-06T09:07:58;2.83;;;2.63;;
11171;SDS011;5642;50.830;12.082;2024-01-06T09:10:36;2.78;;;2.53;;
11171;SDS011;5642;50.830;12.082;2024-01-06T09:13:32;3.08;;;2.78;;
11171;SDS011;5642;50.830;12.082;2024-01-06T09:16:01;3.75;;;2.97;;
11171;SDS011;5642;50.830;12.082;2024-01-06T09:18:30;2.55;;;2.35;;
11171;SDS011;5642;50.830;12.082;2024-01-06T09:21:06;3.50;;;2.88;;
11171;SDS011;5642;50.830;12.082;2024-01-06T09:23:55;3.67;;;2.45;;
11171;SDS011;5642;50.830;12.082;2024-01-06T09:26:40;2.75;;;2.55;;
11171;SDS011;5642;50.830;12.082;2024-01-06T09:29:16;2.85;;;2.65;;
11171;SDS011;5642;50.830;12.082;2024-01-06T09:32:05;2.80;;;2.50;;
11171;SDS011;5642;50.830;12.082;2024-01-06T09:34:38;3.05;;;2.75;;
11171;SDS011;5642;50.830;12.082;2024-01-06T09:37:22;3.15;;;2.85;;
11171;SDS011;5642;50.830;12.082;2024-01-06T09:40:08;3.97;;;2.78;;
11171;SDS011;5642;50.830;12.082;2024-01-06T09:42:40;3.22;;;2.95;;
11171;SDS011;5642;50.830;12.082;2024-01-06T09:45:15;4.00;;;3.60;;
11171;SDS011;5642;50.830;12.082;2024-01-06T09:48:20;3.40;;;3.10;;
11171;SDS011;5642;50.830;12.082;2024-01-06T09:51:00;3.85;;;3.00;;
11171;SDS011;5642;50.830;12.082;2024-01-06T09:53:52;3.75;;;3.05;;
11171;SDS011;5642;50.830;12.082;2024-01-06T09:56:38;3.53;;;2.80;;
11171;SDS011;5642;50.830;12.082;2024-01-06T09:59:12;3.25;;;2.95;;
11171;SDS011;5642;50.830;12.082;2024-01-06T10:01:59;4.43;;;3.83;;
11171;SDS011;5642;50.830;12.082;2024-01-06T10:04:47;3.45;;;3.15;;
11171;SDS011;5642;50.830;12.082;2024-01-06T10:07:41;3.70;;;3.22;;
11171;SDS011;5642;50.830;12.082;2024-01-06T10:10:46;3.20;;;2.92;;
11171;SDS011;5642;50.830;12.082;2024-01-06T10:13:16;3.70;;;3.35;;
11171;SDS011;5642;50.830;12.082;2024-01-06T10:16:05;4.55;;;3.88;;
11171;SDS011;5642;50.830;12.082;2024-01-06T10:18:37;5.00;;;3.97;;
11171;SDS011;5642;50.830;12.082;2024-01-06T10:21:14;4.03;;;3.63;;
11171;SDS011;5642;50.830;12.082;2024-01-06T10:23:59;4.78;;;3.42;;
11171;SDS011;5642;50.830;12.082;2024-01-06T10:26:41;3.80;;;3.40;;
11171;SDS011;5642;50.830;12.082;2024-01-06T10:29:29;3.75;;;3.45;;
11171;SDS011;5642;50.830;12.082;2024-01-06T10:32:08;3.65;;;3.30;;
11171;SDS011;5642;50.830;12.082;2024-01-06T10:34:55;3.95;;;3.03;;
11171;SDS011;5642;50.830;12.082;2024-01-06T10:37:41;3.88;;;3.58;;
11171;SDS011;5642;50.830;12.082;2024-01-06T10:40:30;3.42;;;3.10;;
11171;SDS011;5642;50.830;12.082;2024-01-06T10:43:06;3.42;;;3.13;;
11171;SDS011;5642;50.830;12.082;2024-01-06T10:45:41;4.03;;;3.00;;
11171;SDS011;5642;50.830;12.082;2024-01-06T10:48:26;3.17;;;2.97;;
11171;SDS011;5642;50.830;12.082;2024-01-06T10:50:56;3.42;;;3.13;;
11171;SDS011;5642;50.830;12.082;2024-01-06T10:53:40;3.33;;;3.03;;
11171;SDS011;5642;50.830;12.082;2024-01-06T10:56:24;3.53;;;3.22;;
11171;SDS011;5642;50.830;12.082;2024-01-06T10:59:06;3.42;;;3.03;;
11171;SDS011;5642;50.830;12.082;2024-01-06T11:01:49;3.17;;;2.80;;
11171;SDS011;5642;50.830;12.082;2024-01-06T11:04:45;3.30;;;3.00;;
11171;SDS011;5642;50.830;12.082;2024-01-06T11:07:19;3.30;;;3.00;;
11171;SDS011;5642;50.830;12.082;2024-01-06T11:12:42;3.15;;;2.92;;
11171;SDS011;5642;50.830;12.082;2024-01-06T11:15:38;3.20;;;2.78;;
11171;SDS011;5642;50.830;12.082;2024-01-06T11:18:32;2.78;;;2.55;;
11171;SDS011;5642;50.830;12.082;2024-01-06T11:21:18;4.82;;;4.35;;
11171;SDS011;5642;50.830;12.082;2024-01-06T11:26:59;4.10;;;3.70;;
11171;SDS011;5642;50.830;12.082;2024-01-06T11:30:03;3.70;;;3.13;;
11171;SDS011;5642;50.830;12.082;2024-01-06T11:33:20;4.97;;;3.90;;
11171;SDS011;5642;50.830;12.082;2024-01-06T11:36:21;3.67;;;3.30;;
11171;SDS011;5642;50.830;12.082;2024-01-06T11:42:15;5.30;;;3.95;;
11171;SDS011;5642;50.830;12.082;2024-01-06T11:45:02;4.22;;;3.70;;
11171;SDS011;5642;50.830;12.082;2024-01-06T11:47:47;3.78;;;3.35;;
11171;SDS011;5642;50.830;12.082;2024-01-06T11:50:54;4.22;;;3.70;;
11171;SDS011;5642;50.830;12.082;2024-01-06T11:53:28;4.38;;;3.97;;
11171;SDS011;5642;50.830;12.082;2024-01-06T11:56:15;4.00;;;3.60;;
11171;SDS011;5642;50.830;12.082;2024-01-06T11:58:49;4.20;;;3.80;;
11171;SDS011;5642;50.830;12.082;2024-01-06T12:01:16;4.88;;;3.80;;
11171;SDS011;5642;50.830;12.082;2024-01-06T12:03:45;4.53;;;3.70;;
11171;SDS011;5642;50.830;12.082;2024-01-06T12:06:35;4.30;;;3.90;;
11171;SDS011;5642;50.830;12.082;2024-01-06T12:09:27;3.70;;;3.40;;
11171;SDS011;5642;50.830;12.082;2024-01-06T12:12:09;4.00;;;3.17;;
11171;SDS011;5642;50.830;12.082;2024-01-06T12:14:40;3.80;;;3.50;;
11171;SDS011;5642;50.830;12.082;2024-01-06T12:17:30;3.00;;;2.80;;
11171;SDS011;5642;50.830;12.082;2024-01-06T12:20:00;4.30;;;3.55;;
11171;SDS011;5642;50.830;12.082;2024-01-06T12:22:43;3.70;;;3.40;;
11171;SDS011;5642;50.830;12.082;2024-01-06T12:25:51;4.60;;;3.55;;
11171;SDS011;5642;50.830;12.082;2024-01-06T12:28:35;3.47;;;3.17;;
11171;SDS011;5642;50.830;12.082;2024-01-06T12:31:14;3.83;;;3.20;;
11171;SDS011;5642;50.830;12.082;2024-01-06T12:33:47;3.72;;;3.22;;
11171;SDS011;5642;50.830;12.082;2024-01-06T12:36:24;3.20;;;2.90;;
11171;SDS011;5642;50.830;12.082;2024-01-06T12:39:19;3.38;;;3.08;;
11171;SDS011;5642;50.830;12.082;2024-01-06T12:41:46;3.28;;;2.97;;
11171;SDS011;5642;50.830;12.082;2024-01-06T12:44:33;3.97;;;3.10;;
11171;SDS011;5642;50.830;12.082;2024-01-06T12:47:20;6.50;;;4.47;;
11171;SDS011;5642;50.830;12.082;2024-01-06T12:49:48;5.63;;;4.13;;
11171;SDS011;5642;50.830;12.082;2024-01-06T12:52:14;6.07;;;5.03;;
11171;SDS011;5642;50.830;12.082;2024-01-06T12:54:41;7.80;;;7.00;;
11171;SDS011;5642;50.830;12.082;2024-01-06T12:57:13;8.05;;;6.90;;
11171;SDS011;5642;50.830;12.082;2024-01-06T12:59:41;8.95;;;7.63;;
11171;SDS011;5642;50.830;12.082;2024-01-06T13:02:09;10.00;;;8.13;;
11171;SDS011;5642;50.830;12.082;2024-01-06T13:04:35;11.18;;;7.75;;
11171;SDS011;5642;50.830;12.082;2024-01-06T13:07:17;9.68;;;6.85;;
11171;SDS011;5642;50.830;12.082;2024-01-06T13:09:52;8.13;;;6.40;;
11171;SDS011;5642;50.830;12.082;2024-01-06T13:12:22;7.25;;;5.82;;
11171;SDS011;5642;50.830;12.082;2024-01-06T13:15:06;7.95;;;5.90;;
11171;SDS011;5642;50.830;12.082;2024-01-06T13:17:37;6.28;;;5.20;;
11171;SDS011;5642;50.830;12.082;2024-01-06T13:20:04;5.70;;;4.70;;
11171;SDS011;5642;50.830;12.082;2024-01-06T13:22:46;4.47;;;4.03;;
11171;SDS011;5642;50.830;12.082;2024-01-06T13:25:12;5.60;;;4.50;;
11171;SDS011;5642;50.830;12.082;2024-01-06T13:27:52;4.22;;;3.83;;
11171;SDS011;5642;50.830;12.082;2024-01-06T13:30:26;3.80;;;3.40;;
11171;SDS011;5642;50.830;12.082;2024-01-06T13:32:55;4.05;;;3.67;;
11171;SDS011;5642;50.830;12.082;2024-01-06T13:35:26;4.18;;;3.33;;
11171;SDS011;5642;50.830;12.082;2024-01-06T13:37:55;3.53;;;3.08;;
11171;SDS011;5642;50.830;12.082;2024-01-06T13:40:22;3.80;;;3.50;;
11171;SDS011;5642;50.830;12.082;2024-01-06T13:42:53;3.78;;;3.47;;
11171;SDS011;5642;50.830;12.082;2024-01-06T13:45:45;3.50;;;3.20;;
11171;SDS011;5642;50.830;12.082;2024-01-06T13:48:35;4.60;;;3.30;;
11171;SDS011;5642;50.830;12.082;2024-01-06T13:51:20;3.90;;;3.45;;
11171;SDS011;5642;50.830;12.082;2024-01-06T13:54:04;4.05;;;3.72;;
11171;SDS011;5642;50.830;12.082;2024-01-06T13:56:32;4.00;;;3.58;;
11171;SDS011;5642;50.830;12.082;2024-01-06T13:59:26;4.22;;;3.83;;
11171;SDS011;5642;50.830;12.082;2024-01-06T14:02:04;4.85;;;4.30;;
11171;SDS011;5642;50.830;12.082;2024-01-06T14:04:34;4.10;;;3.70;;
11171;SDS011;5642;50.830;12.082;2024-01-06T14:07:13;4.38;;;3.97;;
11171;SDS011;5642;50.830;12.082;2024-01-06T14:09:53;4.10;;;3.60;;
11171;SDS011;5642;50.830;12.082;2024-01-06T14:12:27;4.10;;;3.70;;
11171;SDS011;5642;50.830;12.082;2024-01-06T14:15:12;3.88;;;3.47;;
11171;SDS011;5642;50.830;12.082;2024-01-06T14:17:41;4.40;;;4.00;;
11171;SDS011;5642;50.830;12.082;2024-01-06T14:20:17;4.22;;;3.83;;
11171;SDS011;5642;50.830;12.082;2024-01-06T14:22:45;4.07;;;3.67;;
11171;SDS011;5642;50.830;12.082;2024-01-06T14:25:26;4.65;;;4.25;;
11171;SDS011;5642;50.830;12.082;2024-01-06T14:28:09;4.05;;;3.63;;
11171;SDS011;5642;50.830;12.082;2024-01-06T14:30:36;4.28;;;3.88;;
11171;SDS011;5642;50.830;12.082;2024-01-06T14:33:19;4.82;;;4.13;;
11171;SDS011;5642;50.830;12.082;2024-01-06T14:35:47;4.78;;;4.28;;
11171;SDS011;5642;50.830;12.082;2024-01-06T14:38:35;4.00;;;3.70;;
11171;SDS011;5642;50.830;12.082;2024-01-06T14:41:20;4.28;;;3.88;;
11171;SDS011;5642;50.830;12.082;2024-01-06T14:44:24;4.13;;;3.70;;
11171;SDS011;5642;50.830;12.082;2024-01-06T14:47:07;4.28;;;3.85;;
11171;SDS011;5642;50.830;12.082;2024-01-06T14:49:45;4.32;;;3.92;;
11171;SDS011;5642;50.830;12.082;2024-01-06T14:52:11;4.90;;;4.43;;
11171;SDS011;5642;50.830;12.082;2024-01-06T14:54:39;4.00;;;3.60;;
11171;SDS011;5642;50.830;12.082;2024-01-06T15:08:53;5.18;;;4.20;;
11171;SDS011;5642;50.830;12.082;2024-01-06T15:11:31;4.85;;;4.40;;
11171;SDS011;5642;50.830;12.082;2024-01-06T15:14:14;4.60;;;4.20;;
11171;SDS011;5642;50.830;12.082;2024-01-06T15:16:43;4.75;;;4.35;;
11171;SDS011;5642;50.830;12.082;2024-01-06T15:19:09;4.63;;;4.22;;
11171;SDS011;5642;50.830;12.082;2024-01-06T15:21:51;4.70;;;4.30;;
11171;SDS011;5642;50.830;12.082;2024-01-06T15:24:39;5.25;;;4.38;;
11171;SDS011;5642;50.830;12.082;2024-01-06T15:27:08;5.03;;;4.28;;
11171;SDS011;5642;50.830;12.082;2024-01-06T15:29:57;4.20;;;3.85;;
11171;SDS011;5642;50.830;12.082;2024-01-06T15:32:42;4.22;;;3.75;;
11171;SDS011;5642;50.830;12.082;2024-01-06T15:35:15;3.63;;;3.33;;
11171;SDS011;5642;50.830;12.082;2024-01-06T15:37:44;3.47;;;3.17;;
11171;SDS011;5642;50.830;12.082;2024-01-06T15:40:17;4.28;;;3.35;;
11171;SDS011;5642;50.830;12.082;2024-01-06T15:43:08;3.88;;;3.47;;
11171;SDS011;5642;50.830;12.082;2024-01-06T15:45:46;4.65;;;3.83;;
11171;SDS011;5642;50.830;12.082;2024-01-06T15:48:13;4.35;;;3.95;;
11171;SDS011;5642;50.830;12.082;2024-01-06T15:50:58;3.58;;;3.28;;
11171;SDS011;5642;50.830;12.082;2024-01-06T15:53:38;4.00;;;3.10;;
11171;SDS011;5642;50.830;12.082;2024-01-06T15:56:06;4.40;;;4.00;;
11171;SDS011;5642;50.830;12.082;2024-01-06T15:58:38;4.47;;;4.10;;
11171;SDS011;5642;50.830;12.082;2024-01-06T16:01:29;3.90;;;3.58;;
11171;SDS011;5642;50.830;12.082;2024-01-06T16:04:16;4.50;;;4.10;;
11171;SDS011;5642;50.830;12.082;2024-01-06T16:07:03;4.57;;;4.18;;
11171;SDS011;5642;50.830;12.082;2024-01-06T16:09:33;6.68;;;5.00;;
11171;SDS011;5642;50.830;12.082;2024-01-06T16:12:06;4.72;;;4.32;;
11171;SDS011;5642;50.830;12.082;2024-01-06T16:14:36;4.30;;;3.90;;
11171;SDS011;5642;50.830;12.082;2024-01-06T16:17:04;4.70;;;4.10;;
11171;SDS011;5642;50.830;12.082;2024-01-06T16:19:33;5.15;;;4.03;;
11171;SDS011;5642;50.830;12.082;2024-01-06T16:22:34;3.70;;;3.40;;
11171;SDS011;5642;50.830;12.082;2024-01-06T16:25:17;3.83;;;3.40;;
11171;SDS011;5642;50.830;12.082;2024-01-06T16:27:56;3.72;;;3.42;;
11171;SDS011;5642;50.830;12.082;2024-01-06T16:30:43;4.05;;;3.35;;
11171;SDS011;5642;50.830;12.082;2024-01-06T16:33:47;3.53;;;3.22;;
11171;SDS011;5642;50.830;12.082;2024-01-06T16:36:22;3.50;;;3.20;;
11171;SDS011;5642;50.830;12.082;2024-01-06T16:39:03;3.25;;;2.95;;
11171;SDS011;5642;50.830;12.082;2024-01-06T16:42:00;3.40;;;3.10;;
11171;SDS011;5642;50.830;12.082;2024-01-06T16:44:57;3.40;;;3.05;;